createdAt,value
2018-03-25T00:00:02.371Z,99.70
2018-03-25T00:02:29.879Z,99.70
2018-03-25T00:04:58.311Z,99.80
2018-03-25T00:07:25.811Z,99.60
2018-03-25T00:09:54.056Z,99.70
2018-03-25T00:12:21.575Z,99.60
2018-03-25T00:14:49.056Z,99.70
2018-03-25T00:17:16.572Z,99.60
2018-03-25T00:19:44.799Z,99.50
2018-03-25T00:22:12.750Z,99.40
2018-03-25T00:24:40.259Z,99.50
2018-03-25T00:27:08.510Z,99.40
2018-03-25T00:29:36.033Z,99.30
2018-03-25T00:32:03.500Z,99.50
2018-03-25T00:34:31.010Z,99.60
2018-03-25T00:36:59.338Z,99.90
2018-03-25T00:39:26.847Z,99.80
2018-03-25T00:41:54.361Z,99.90
2018-03-25T00:44:21.844Z,99.90
2018-03-25T00:46:50.128Z,99.90
2018-03-25T00:49:17.627Z,99.90
2018-03-25T00:51:45.131Z,99.90
2018-03-25T00:54:12.647Z,99.90
2018-03-25T00:56:40.146Z,99.90
2018-03-25T00:59:07.685Z,99.90
2018-03-25T01:01:35.178Z,99.90
2018-03-25T01:04:02.674Z,99.90
2018-03-25T01:06:30.184Z,99.90
2018-03-25T01:08:58.436Z,99.90
2018-03-25T01:11:25.990Z,99.90
2018-03-25T01:13:53.771Z,99.90
2018-03-25T01:16:21.284Z,99.90
2018-03-25T01:18:48.791Z,99.90
2018-03-25T01:21:17.061Z,99.90
2018-03-25T01:23:44.571Z,99.90
2018-03-25T01:26:12.055Z,99.90
2018-03-25T01:28:39.552Z,99.90
2018-03-25T01:31:07.064Z,99.90
2018-03-25T01:33:35.310Z,99.90
2018-03-25T01:36:02.819Z,99.90
2018-03-25T01:38:30.290Z,99.90
2018-03-25T01:40:58.564Z,99.90
2018-03-25T01:43:26.064Z,99.90
2018-03-25T01:45:53.567Z,99.90
2018-03-25T01:48:21.079Z,99.90
2018-03-25T01:50:48.565Z,99.90
2018-03-25T01:53:16.063Z,99.90
2018-03-25T01:55:44.368Z,99.90
2018-03-25T01:58:11.856Z,99.90
2018-03-25T02:00:39.358Z,99.90
2018-03-25T02:03:07.630Z,99.90
2018-03-25T02:05:35.891Z,99.90
2018-03-25T02:08:03.401Z,99.90
2018-03-25T02:10:30.895Z,99.90
2018-03-25T02:12:58.401Z,99.90
2018-03-25T02:15:25.891Z,99.90
2018-03-25T02:17:53.394Z,99.90
2018-03-25T02:20:21.662Z,99.90
2018-03-25T02:22:49.923Z,99.90
2018-03-25T02:25:17.413Z,99.90
2018-03-25T02:27:44.945Z,99.90
2018-03-25T02:30:12.497Z,99.90
2018-03-25T02:32:40.005Z,99.90
2018-03-25T02:35:07.510Z,99.90
2018-03-25T02:37:35.850Z,99.90
2018-03-25T02:40:03.344Z,99.90
2018-03-25T02:42:30.832Z,99.90
2018-03-25T02:44:59.087Z,99.90
2018-03-25T02:47:26.589Z,99.90
2018-03-25T02:49:54.116Z,99.90
2018-03-25T02:52:21.631Z,99.90
2018-03-25T02:54:49.110Z,99.90
2018-03-25T02:57:16.608Z,99.90
2018-03-25T02:59:44.111Z,99.90
2018-03-25T03:02:11.612Z,99.90
2018-03-25T03:04:39.097Z,99.90
2018-03-25T03:07:06.600Z,99.90
2018-03-25T03:09:34.128Z,99.90
2018-03-25T03:12:01.626Z,99.90
2018-03-25T03:14:29.157Z,99.90
2018-03-25T03:16:56.641Z,99.90
2018-03-25T03:19:24.847Z,99.90
2018-03-25T03:21:52.374Z,99.90
2018-03-25T03:24:19.857Z,99.90
2018-03-25T03:26:47.379Z,99.90
2018-03-25T03:29:14.902Z,99.90
2018-03-25T03:31:42.386Z,99.90
2018-03-25T03:34:09.918Z,99.90
2018-03-25T03:36:37.404Z,99.90
2018-03-25T03:39:04.921Z,99.90
2018-03-25T03:41:32.407Z,99.90
2018-03-25T03:44:00.330Z,99.90
2018-03-25T03:46:27.883Z,99.90
2018-03-25T03:48:55.428Z,99.90
2018-03-25T03:51:22.938Z,99.90
2018-03-25T03:53:51.436Z,99.90
2018-03-25T03:56:18.929Z,99.90
2018-03-25T03:58:47.217Z,99.90
2018-03-25T04:01:15.458Z,99.90
2018-03-25T04:03:43.019Z,99.90
2018-03-25T04:06:11.124Z,99.90
2018-03-25T04:08:38.649Z,99.90
2018-03-25T04:11:06.148Z,99.90
2018-03-25T04:13:34.424Z,99.90
2018-03-25T04:16:02.698Z,99.90
2018-03-25T04:18:30.162Z,99.90
2018-03-25T04:20:57.653Z,99.90
2018-03-25T04:23:25.175Z,99.90
2018-03-25T04:25:53.455Z,99.90
2018-03-25T04:28:21.175Z,99.90
2018-03-25T04:30:48.672Z,99.90
2018-03-25T04:33:16.178Z,99.90
2018-03-25T04:35:43.685Z,99.90
2018-03-25T04:38:11.188Z,99.90
2018-03-25T04:40:38.687Z,99.90
2018-03-25T04:43:07.940Z,99.90
2018-03-25T04:45:35.418Z,99.90
2018-03-25T04:48:02.927Z,99.90
2018-03-25T04:50:30.617Z,99.90
2018-03-25T04:52:58.121Z,99.90
2018-03-25T04:55:25.668Z,99.90
2018-03-25T04:57:53.949Z,99.90
2018-03-25T05:00:22.072Z,99.90
2018-03-25T05:02:49.575Z,99.90
2018-03-25T05:05:17.843Z,99.90
2018-03-25T05:07:45.996Z,99.90
2018-03-25T05:10:13.498Z,99.90
2018-03-25T05:12:40.988Z,99.90
2018-03-25T05:15:08.510Z,99.90
2018-03-25T05:17:36.772Z,99.90
2018-03-25T05:20:05.018Z,99.90
2018-03-25T05:22:32.559Z,99.90
2018-03-25T05:25:02.177Z,99.90
2018-03-25T05:27:29.712Z,99.90
2018-03-25T05:29:57.254Z,99.90
2018-03-25T05:32:24.814Z,99.90
2018-03-25T05:34:52.308Z,99.90
2018-03-25T05:37:19.833Z,99.90
2018-03-25T05:39:47.329Z,99.90
2018-03-25T05:42:14.897Z,99.90
2018-03-25T05:44:42.387Z,99.90
2018-03-25T05:47:10.650Z,99.90
2018-03-25T05:49:38.148Z,99.90
2018-03-25T05:52:05.641Z,99.90
2018-03-25T05:54:33.138Z,99.90
2018-03-25T05:57:00.642Z,99.90
2018-03-25T05:59:28.145Z,99.90
2018-03-25T06:01:55.647Z,99.90
2018-03-25T06:04:23.179Z,99.90
2018-03-25T06:06:50.737Z,99.90
2018-03-25T06:09:19.004Z,99.90
2018-03-25T06:11:47.378Z,99.90
2018-03-25T06:14:16.580Z,99.90
2018-03-25T06:16:44.083Z,99.90
2018-03-25T06:19:11.615Z,99.40
2018-03-25T06:21:39.112Z,98.10
2018-03-25T06:24:06.589Z,96.80
2018-03-25T06:26:34.088Z,95.20
2018-03-25T06:29:01.646Z,94.10
2018-03-25T06:31:29.879Z,93.00
2018-03-25T06:33:57.382Z,92.90
2018-03-25T06:36:24.843Z,93.70
2018-03-25T06:38:52.333Z,93.70
2018-03-25T06:41:19.795Z,93.50
2018-03-25T06:43:47.295Z,93.20
2018-03-25T06:46:15.547Z,91.30
2018-03-25T06:48:43.081Z,91.30
2018-03-25T06:51:10.559Z,90.20
2018-03-25T06:53:38.037Z,89.30
2018-03-25T06:56:06.278Z,90.20
2018-03-25T06:58:33.759Z,89.70
2018-03-25T07:01:01.237Z,89.10
2018-03-25T07:03:29.620Z,85.70
2018-03-25T07:05:57.401Z,85.60
2018-03-25T07:08:24.877Z,88.90
2018-03-25T07:10:52.378Z,88.60
2018-03-25T07:13:19.859Z,86.90
2018-03-25T07:15:47.342Z,86.40
2018-03-25T07:18:14.820Z,85.60
2018-03-25T07:20:42.281Z,84.10
2018-03-25T07:23:09.774Z,83.50
2018-03-25T07:25:38.190Z,82.20
2018-03-25T07:28:05.703Z,82.30
2018-03-25T07:30:33.170Z,80.40
2018-03-25T07:33:01.406Z,77.00
2018-03-25T07:35:28.938Z,76.80
2018-03-25T07:37:56.415Z,77.50
2018-03-25T07:40:23.909Z,76.40
2018-03-25T07:42:51.988Z,76.90
2018-03-25T07:45:19.465Z,76.90
2018-03-25T07:47:46.974Z,78.90
2018-03-25T07:50:14.456Z,80.20
2018-03-25T07:52:42.719Z,75.70
2018-03-25T07:55:10.207Z,75.70
2018-03-25T07:57:38.464Z,74.20
2018-03-25T08:00:05.971Z,74.10
2018-03-25T08:02:33.525Z,73.40
2018-03-25T08:05:01.020Z,73.70
2018-03-25T08:07:28.522Z,74.70
2018-03-25T08:09:56.003Z,77.00
2018-03-25T08:12:23.493Z,76.50
2018-03-25T08:14:51.005Z,77.00
2018-03-25T08:17:18.485Z,79.70
2018-03-25T08:19:45.983Z,83.00
2018-03-25T08:22:13.474Z,81.70
2018-03-25T08:24:40.965Z,82.90
2018-03-25T08:27:08.463Z,81.00
2018-03-25T08:29:36.742Z,84.20
2018-03-25T08:32:05.096Z,81.90
2018-03-25T08:34:32.594Z,81.90
2018-03-25T08:37:00.082Z,81.20
2018-03-25T08:39:27.591Z,82.50
2018-03-25T08:41:55.855Z,86.00
2018-03-25T08:44:23.361Z,85.90
2018-03-25T08:46:50.868Z,84.40
2018-03-25T08:49:18.383Z,83.80
2018-03-25T08:51:45.874Z,84.00
2018-03-25T08:54:13.380Z,85.30
2018-03-25T08:56:40.870Z,84.20
2018-03-25T08:59:08.370Z,82.20
2018-03-25T09:01:36.617Z,80.00
2018-03-25T09:04:04.105Z,80.00
2018-03-25T09:06:31.625Z,79.00
2018-03-25T09:08:59.102Z,77.60
2018-03-25T09:11:26.593Z,79.10
2018-03-25T09:13:54.075Z,80.80
2018-03-25T09:16:21.561Z,79.00
2018-03-25T09:18:49.076Z,78.20
2018-03-25T09:21:16.559Z,80.00
2018-03-25T09:23:44.054Z,77.20
2018-03-25T09:26:11.546Z,76.20
2018-03-25T09:28:39.036Z,76.10
2018-03-25T09:31:06.491Z,74.00
2018-03-25T09:33:33.995Z,74.20
2018-03-25T09:36:01.501Z,72.70
2018-03-25T09:38:29.023Z,70.60
2018-03-25T09:40:57.304Z,72.90
2018-03-25T09:43:25.578Z,72.50
2018-03-25T09:45:53.826Z,69.20
2018-03-25T09:48:21.345Z,69.20
2018-03-25T09:50:48.845Z,70.10
2018-03-25T09:53:17.116Z,67.80
2018-03-25T09:55:44.597Z,67.80
2018-03-25T09:58:12.101Z,68.50
2018-03-25T10:00:39.609Z,64.90
2018-03-25T10:03:13.458Z,65.10
2018-03-25T10:05:40.939Z,64.30
2018-03-25T10:08:08.419Z,66.90
2018-03-25T10:10:36.683Z,60.30
2018-03-25T10:13:04.210Z,60.20
2018-03-25T10:15:31.693Z,61.80
2018-03-25T10:17:59.199Z,62.10
2018-03-25T10:20:26.709Z,63.80
2018-03-25T10:22:54.216Z,63.50
2018-03-25T10:25:22.624Z,61.10
2018-03-25T10:27:50.124Z,62.50
2018-03-25T10:30:18.429Z,59.80
2018-03-25T10:32:46.506Z,59.70
2018-03-25T10:35:13.996Z,61.40
2018-03-25T10:37:41.521Z,59.50
2018-03-25T10:40:09.018Z,59.20
2018-03-25T10:42:36.501Z,59.80
2018-03-25T10:45:04.754Z,59.80
2018-03-25T10:47:32.231Z,59.70
2018-03-25T10:50:00.496Z,58.30
2018-03-25T10:52:27.976Z,58.20
2018-03-25T10:54:55.491Z,61.50
2018-03-25T10:57:22.976Z,62.30
2018-03-25T10:59:50.498Z,61.70
2018-03-25T11:02:17.977Z,60.10
2018-03-25T11:04:45.520Z,58.10
2018-03-25T11:07:13.000Z,58.00
2018-03-25T11:09:40.484Z,60.80
2018-03-25T11:12:08.871Z,60.40
2018-03-25T11:14:36.383Z,58.00
2018-03-25T11:17:03.861Z,54.10
2018-03-25T11:19:32.151Z,53.90
2018-03-25T11:22:00.406Z,53.40
2018-03-25T11:24:27.883Z,53.30
2018-03-25T11:26:56.138Z,53.50
2018-03-25T11:29:23.648Z,53.50
2018-03-25T11:31:51.143Z,52.90
2018-03-25T11:34:18.646Z,54.60
2018-03-25T11:36:46.141Z,56.10
2018-03-25T11:39:13.628Z,54.90
2018-03-25T11:41:41.111Z,51.70
2018-03-25T11:44:09.373Z,53.60
2018-03-25T11:46:37.618Z,53.30
2018-03-25T11:49:05.115Z,53.40
2018-03-25T11:51:33.389Z,55.90
2018-03-25T11:54:01.654Z,56.60
2018-03-25T11:56:29.153Z,56.50
2018-03-25T11:58:56.705Z,56.70
2018-03-25T12:01:24.195Z,58.40
2018-03-25T12:03:51.718Z,56.90
2018-03-25T12:06:19.215Z,58.50
2018-03-25T12:08:46.707Z,56.80
2018-03-25T12:11:14.237Z,58.20
2018-03-25T12:13:41.726Z,57.60
2018-03-25T12:16:09.996Z,57.80
2018-03-25T12:18:38.277Z,58.40
2018-03-25T12:21:06.539Z,57.20
2018-03-25T12:23:34.064Z,57.10
2018-03-25T12:26:01.555Z,55.60
2018-03-25T12:28:29.112Z,54.40
2018-03-25T12:30:56.609Z,53.00
2018-03-25T12:33:24.127Z,51.30
2018-03-25T12:35:51.611Z,53.00
2018-03-25T12:38:19.118Z,52.90
2018-03-25T12:40:46.627Z,51.90
2018-03-25T12:43:14.111Z,49.30
2018-03-25T12:45:41.620Z,48.60
2018-03-25T12:48:09.095Z,49.20
2018-03-25T12:50:36.588Z,51.50
2018-03-25T12:53:04.084Z,50.80
2018-03-25T12:55:31.610Z,47.00
2018-03-25T12:57:59.136Z,47.90
2018-03-25T13:00:26.642Z,50.30
2018-03-25T13:02:54.163Z,53.70
2018-03-25T13:05:21.658Z,55.40
2018-03-25T13:07:49.167Z,51.70
2018-03-25T13:10:16.680Z,50.80
2018-03-25T13:12:45.033Z,50.90
2018-03-25T13:15:12.972Z,46.60
2018-03-25T13:17:40.478Z,49.30
2018-03-25T13:20:08.003Z,45.20
2018-03-25T13:22:35.508Z,45.70
2018-03-25T13:25:02.990Z,38.80
2018-03-25T13:27:31.268Z,33.90
2018-03-25T13:29:59.561Z,34.30
2018-03-25T13:32:27.058Z,34.20
2018-03-25T13:34:54.583Z,36.90
2018-03-25T13:37:22.073Z,40.90
2018-03-25T13:39:49.547Z,42.00
2018-03-25T13:42:17.038Z,46.20
2018-03-25T13:44:44.551Z,48.70
2018-03-25T13:47:12.046Z,47.90
2018-03-25T13:49:39.546Z,50.40
2018-03-25T13:52:07.056Z,51.10
2018-03-25T13:54:35.327Z,47.50
2018-03-25T13:57:03.585Z,48.60
2018-03-25T13:59:31.095Z,48.70
2018-03-25T14:01:58.549Z,48.60
2018-03-25T14:04:26.040Z,49.20
2018-03-25T14:06:53.559Z,50.30
2018-03-25T14:09:21.046Z,53.30
2018-03-25T14:11:48.568Z,54.40
2018-03-25T14:14:16.046Z,54.90
2018-03-25T14:16:43.568Z,56.60
2018-03-25T14:19:11.113Z,56.30
2018-03-25T14:21:38.603Z,57.30
2018-03-25T14:24:06.771Z,57.60
2018-03-25T14:26:34.261Z,55.50
2018-03-25T14:29:01.765Z,57.50
2018-03-25T14:31:29.271Z,52.80
2018-03-25T14:33:56.766Z,50.20
2018-03-25T14:36:24.283Z,48.30
2018-03-25T14:38:51.802Z,47.80
2018-03-25T14:41:20.057Z,38.30
2018-03-25T14:43:47.598Z,38.20
2018-03-25T14:46:15.117Z,37.50
2018-03-25T14:48:42.627Z,35.60
2018-03-25T14:51:10.118Z,34.80
2018-03-25T14:53:38.365Z,37.40
2018-03-25T14:56:05.862Z,37.40
2018-03-25T14:58:34.118Z,40.30
2018-03-25T15:01:01.627Z,40.20
2018-03-25T15:03:29.124Z,41.00
2018-03-25T15:05:56.642Z,41.00
2018-03-25T15:08:24.174Z,42.10
2018-03-25T15:10:52.420Z,42.80
2018-03-25T15:13:20.730Z,40.00
2018-03-25T15:15:48.265Z,40.00
2018-03-25T15:18:15.767Z,42.00
2018-03-25T15:20:43.274Z,43.60
2018-03-25T15:23:10.787Z,40.50
2018-03-25T15:25:38.337Z,40.40
2018-03-25T15:28:05.830Z,38.40
2018-03-25T15:30:33.327Z,35.50
2018-03-25T15:33:01.592Z,35.50
2018-03-25T15:35:29.872Z,36.60
2018-03-25T15:37:58.213Z,35.10
2018-03-25T15:40:26.434Z,35.00
2018-03-25T15:42:54.698Z,36.50
2018-03-25T15:45:22.982Z,35.10
2018-03-25T15:47:51.240Z,35.00
2018-03-25T15:50:18.738Z,35.10
2018-03-25T15:52:46.228Z,34.50
2018-03-25T15:55:13.731Z,34.10
2018-03-25T15:57:42.111Z,34.80
2018-03-25T16:00:10.361Z,37.20
2018-03-25T16:02:37.875Z,37.20
2018-03-25T16:05:05.362Z,38.80
2018-03-25T16:07:33.768Z,40.50
2018-03-25T16:10:01.279Z,43.90
2018-03-25T16:12:28.786Z,46.50
2018-03-25T16:14:57.076Z,47.90
2018-03-25T16:17:25.338Z,47.80
2018-03-25T16:19:55.596Z,47.70
2018-03-25T16:22:23.121Z,47.60
2018-03-25T16:24:52.759Z,49.70
2018-03-25T16:27:20.349Z,49.50
2018-03-25T16:29:47.951Z,49.40
2018-03-25T16:32:20.778Z,51.60
2018-03-25T16:34:48.576Z,51.60
2018-03-25T16:37:16.946Z,53.90
2018-03-25T16:39:44.689Z,53.70
2018-03-25T16:42:13.286Z,56.80
2018-03-25T16:44:41.577Z,56.70
2018-03-25T16:47:09.096Z,59.00
2018-03-25T16:49:36.594Z,60.70
2018-03-25T16:52:04.128Z,61.10
2018-03-25T16:54:31.605Z,61.60
2018-03-25T16:56:59.354Z,61.60
2018-03-25T16:59:26.829Z,61.70
2018-03-25T17:01:54.299Z,62.60
2018-03-25T17:04:21.816Z,62.90
2018-03-25T17:06:49.300Z,63.30
2018-03-25T17:09:16.829Z,63.60
2018-03-25T17:11:44.348Z,63.80
2018-03-25T17:14:12.602Z,66.10
2018-03-25T17:16:40.128Z,65.90
2018-03-25T17:19:07.602Z,67.30
2018-03-25T17:21:35.122Z,67.60
2018-03-25T17:24:02.579Z,68.20
2018-03-25T17:26:30.060Z,68.50
2018-03-25T17:28:58.011Z,69.20
2018-03-25T17:31:25.478Z,69.00
2018-03-25T17:33:53.858Z,69.80
2018-03-25T17:36:21.374Z,72.00
2018-03-25T17:38:48.855Z,71.30
2018-03-25T17:41:16.371Z,71.80
2018-03-25T17:43:43.870Z,71.80
2018-03-25T17:46:11.399Z,72.20
2018-03-25T17:48:38.896Z,72.90
2018-03-25T17:51:06.424Z,73.40
2018-03-25T17:53:34.689Z,74.40
2018-03-25T17:56:02.951Z,75.00
2018-03-25T17:58:30.475Z,74.90
2018-03-25T18:00:57.976Z,75.30
2018-03-25T18:03:26.208Z,76.30
2018-03-25T18:05:53.718Z,76.30
2018-03-25T18:08:21.986Z,77.00
2018-03-25T18:10:50.282Z,77.70
2018-03-25T18:13:17.760Z,77.70
2018-03-25T18:15:45.250Z,78.00
2018-03-25T18:18:12.766Z,77.80
2018-03-25T18:20:40.249Z,77.60
2018-03-25T18:23:07.756Z,78.00
2018-03-25T18:25:36.033Z,78.20
2018-03-25T18:28:04.269Z,78.80
2018-03-25T18:30:31.803Z,78.70
2018-03-25T18:33:02.247Z,79.00
2018-03-25T18:35:29.725Z,79.10
2018-03-25T18:37:57.235Z,79.40
2018-03-25T18:40:24.703Z,79.90
2018-03-25T18:42:52.244Z,80.20
2018-03-25T18:45:19.776Z,80.40
2018-03-25T18:47:48.050Z,80.90
2018-03-25T18:50:15.824Z,80.90
2018-03-25T18:52:44.067Z,82.90
2018-03-25T18:55:11.557Z,82.90
2018-03-25T18:57:39.111Z,82.50
2018-03-25T19:00:06.628Z,82.60
2018-03-25T19:02:34.140Z,83.10
2018-03-25T19:05:02.373Z,83.60
2018-03-25T19:07:29.885Z,83.50
2018-03-25T19:09:57.426Z,84.30
2018-03-25T19:12:24.863Z,84.00
2018-03-25T19:14:52.366Z,83.70
2018-03-25T19:17:19.875Z,83.30
2018-03-25T19:19:47.466Z,83.80
2018-03-25T19:22:15.732Z,85.10
2018-03-25T19:24:43.293Z,85.00
2018-03-25T19:27:10.780Z,84.80
2018-03-25T19:29:38.306Z,85.00
2018-03-25T19:32:05.926Z,85.90
2018-03-25T19:34:33.407Z,87.10
2018-03-25T19:37:00.889Z,87.10
2018-03-25T19:39:28.381Z,87.30
2018-03-25T19:41:55.855Z,87.30
2018-03-25T19:44:23.364Z,88.10
2018-03-25T19:46:50.838Z,88.60
2018-03-25T19:49:18.334Z,88.70
2018-03-25T19:51:45.870Z,88.00
2018-03-25T19:54:13.349Z,88.50
2018-03-25T19:56:41.510Z,88.50
2018-03-25T19:59:08.993Z,88.30
2018-03-25T20:01:36.462Z,88.00
2018-03-25T20:04:03.994Z,89.20
2018-03-25T20:06:31.471Z,88.90
2018-03-25T20:08:59.397Z,88.00
2018-03-25T20:11:26.877Z,87.90
2018-03-25T20:13:54.361Z,88.70
2018-03-25T20:16:21.854Z,87.80
2018-03-25T20:18:50.234Z,89.30
2018-03-25T20:21:17.715Z,90.00
2018-03-25T20:23:45.205Z,90.30
2018-03-25T20:26:12.685Z,90.80
2018-03-25T20:28:40.938Z,90.70
2018-03-25T20:31:08.428Z,90.70
2018-03-25T20:33:35.912Z,90.20
2018-03-25T20:36:03.438Z,90.00
2018-03-25T20:38:30.879Z,89.30
2018-03-25T20:40:58.369Z,89.20
2018-03-25T20:43:25.872Z,89.10
2018-03-25T20:45:53.379Z,88.40
2018-03-25T20:48:20.875Z,88.30
2018-03-25T20:50:48.404Z,89.10
2018-03-25T20:53:16.665Z,89.60
2018-03-25T20:55:44.172Z,89.50
2018-03-25T20:58:12.483Z,89.70
2018-03-25T21:00:40.753Z,90.00
2018-03-25T21:03:09.004Z,90.10
2018-03-25T21:05:36.500Z,90.10
2018-03-25T21:08:03.996Z,90.20
2018-03-25T21:10:31.490Z,90.30
2018-03-25T21:12:59.099Z,90.30
2018-03-25T21:15:26.603Z,90.20
2018-03-25T21:17:54.137Z,90.20
2018-03-25T21:20:21.649Z,90.20
2018-03-25T21:22:49.892Z,90.20
2018-03-25T21:25:17.392Z,90.10
2018-03-25T21:27:44.924Z,90.20
2018-03-25T21:30:12.451Z,90.10
2018-03-25T21:32:39.974Z,90.10
2018-03-25T21:35:07.461Z,90.00
2018-03-25T21:37:34.951Z,89.50
2018-03-25T21:40:02.430Z,89.40
2018-03-25T21:42:29.941Z,89.60
2018-03-25T21:44:57.402Z,89.90
2018-03-25T21:47:24.898Z,90.00
2018-03-25T21:49:52.435Z,90.20
2018-03-25T21:52:19.915Z,90.20
2018-03-25T21:54:48.166Z,90.30
2018-03-25T21:57:15.671Z,90.30
2018-03-25T21:59:43.192Z,90.20
2018-03-25T22:02:10.679Z,90.20
2018-03-25T22:04:38.147Z,90.20
2018-03-25T22:07:05.651Z,90.80
2018-03-25T22:09:33.111Z,90.50
2018-03-25T22:12:00.618Z,90.70
2018-03-25T22:14:28.108Z,90.50
2018-03-25T22:16:55.588Z,90.70
2018-03-25T22:19:23.109Z,90.70
2018-03-25T22:21:50.589Z,91.00
2018-03-25T22:24:18.110Z,90.90
2018-03-25T22:26:45.621Z,91.00
2018-03-25T22:29:13.090Z,90.80
2018-03-25T22:31:40.590Z,90.70
2018-03-25T22:34:08.643Z,90.60
2018-03-25T22:36:36.147Z,91.30
2018-03-25T22:39:03.618Z,91.00
2018-03-25T22:41:31.876Z,90.70
2018-03-25T22:43:59.754Z,90.80
2018-03-25T22:46:27.230Z,90.80
2018-03-25T22:48:55.489Z,90.90
2018-03-25T22:51:22.974Z,90.90
2018-03-25T22:53:51.218Z,90.80
2018-03-25T22:56:18.715Z,90.80
2018-03-25T22:58:46.183Z,90.90
2018-03-25T23:01:13.686Z,90.80
2018-03-25T23:03:41.169Z,91.30
2018-03-25T23:06:08.647Z,91.30
2018-03-25T23:08:36.128Z,91.40
2018-03-25T23:11:03.616Z,91.30
2018-03-25T23:13:31.121Z,91.30
2018-03-25T23:15:58.623Z,91.00
2018-03-25T23:18:26.130Z,91.10
2018-03-25T23:20:53.601Z,91.10
2018-03-25T23:23:21.108Z,91.10
2018-03-25T23:25:48.584Z,91.20
2018-03-25T23:28:16.047Z,91.10
2018-03-25T23:30:44.293Z,91.40
2018-03-25T23:33:11.782Z,91.40
2018-03-25T23:35:40.030Z,91.30
2018-03-25T23:38:07.514Z,91.30
2018-03-25T23:40:35.759Z,91.50
2018-03-25T23:43:03.224Z,91.50
2018-03-25T23:45:30.701Z,91.70
2018-03-25T23:47:58.185Z,91.80
2018-03-25T23:50:25.676Z,91.80
2018-03-25T23:52:53.182Z,91.80
2018-03-25T23:55:21.417Z,91.90
2018-03-25T23:57:48.909Z,91.90
